Dolliver, Iowa
Current Conditions -  °F | °C
As of 11:52 AM on Tuesday 21 Oct 2014 (Local Time) from KEST Reporting Station
Clear Clear  
Wind Chill: 60°   Ceiling: Unl
Heat Index: 60°   Visibility: 10mi
Dew Point: 43°   Wind: 9mph
Humidity: 53%   Direction: 150°SSE
Pressure: 30.13"   Gusts: 18mph
Location:  43.46°N, 94.63°W
Report Text: KEST 211652Z AUTO 15008G16KT 10SM CLR 16/06 A3013 RMK AO2 SLP207 T01560061
Loading
Personal Weather Stations






























Interactive Weather Map
Tropical Storm Tracking
New forecast layout! Learn more

10-Day Weather Forecast

Advertisements
Track Severe Weather on mobile